Time;durP1;ratioP1;P1;durP2;ratioP2;P2;SDS_P1;SDS_P2;PMS_P1;PMS_P2;Temp;Humidity;BMP_temperature;BMP_pressure;BME280_temperature;BME280_humidity;BME280_pressure;Samples;Min_cycle;Max_cycle;Signal;HPM_P1;HPM_P2
2022/12/05 00:00:11;;;;;;;15.03;10.63;;;;;;;6.63;67.03;102560.47;4995939;28;20694;-79
2022/12/05 00:02:37;;;;;;;14.82;11.35;;;;;;;6.67;66.29;102551.44;4990351;28;20407;-78
2022/12/05 00:05:03;;;;;;;15.43;11.05;;;;;;;6.63;66.58;102547.31;4992411;28;20473;-78
2022/12/05 00:07:28;;;;;;;14.70;10.80;;;;;;;6.59;66.40;102537.91;4983596;28;20407;-78
2022/12/05 00:09:54;;;;;;;14.55;10.73;;;;;;;6.54;66.97;102545.28;4984734;28;20399;-78
2022/12/05 00:12:19;;;;;;;13.10;10.52;;;;;;;6.54;66.57;102549.69;4991700;28;20396;-78
2022/12/05 00:14:45;;;;;;;13.13;9.63;;;;;;;6.53;66.63;102545.38;4992964;28;20737;-78
2022/12/05 00:17:10;;;;;;;12.07;9.33;;;;;;;6.48;66.70;102546.50;4991516;28;20396;-78
2022/12/05 00:19:36;;;;;;;12.55;9.90;;;;;;;6.31;67.32;102552.81;4991822;28;20866;-78
2022/12/05 00:22:01;;;;;;;15.87;11.30;;;;;;;6.49;66.85;102548.19;4991808;28;20378;-78
2022/12/05 00:24:27;;;;;;;17.90;12.70;;;;;;;6.50;66.75;102549.06;4992307;28;20696;-77
2022/12/05 00:26:52;;;;;;;13.27;10.53;;;;;;;6.53;66.80;102561.16;4992516;28;20503;-77
2022/12/05 00:29:18;;;;;;;14.63;10.85;;;;;;;6.45;66.48;102556.41;5002996;28;20390;-77
2022/12/05 00:31:43;;;;;;;13.53;10.47;;;;;;;6.49;66.54;102555.25;5004787;28;20381;-77
2022/12/05 00:34:09;;;;;;;12.97;10.13;;;;;;;6.49;66.75;102557.88;5004788;28;20404;-76
2022/12/05 00:36:35;;;;;;;12.63;10.00;;;;;;;6.48;66.70;102553.53;4999184;28;20450;-77
2022/12/05 00:39:04;;;;;;;13.75;10.13;;;;;;;6.51;66.48;102551.56;4999177;28;20407;-77
2022/12/05 00:41:30;;;;;;;13.10;10.45;;;;;;;6.63;66.29;102549.94;5007500;28;20401;-77
2022/12/05 00:43:58;;;;;;;14.30;11.00;;;;;;;6.71;65.88;102559.97;5007365;28;20841;-77
2022/12/05 00:46:25;;;;;;;14.23;10.65;;;;;;;6.77;65.83;102569.28;5009245;28;20419;-77
2022/12/05 00:48:55;;;;;;;12.07;9.40;;;;;;;6.58;66.01;102562.56;5009563;28;20615;-77
2022/12/05 00:51:25;;;;;;;13.80;10.50;;;;;;;6.60;66.10;102567.75;5007726;28;20740;-77
2022/12/05 00:53:51;;;;;;;12.50;9.88;;;;;;;6.60;66.21;102568.56;5008327;28;20427;-77
2022/12/05 00:56:20;;;;;;;13.37;10.50;;;;;;;6.49;66.33;102552.63;5011733;28;20400;-77
2022/12/05 00:58:46;;;;;;;13.57;10.50;;;;;;;6.61;65.98;102557.09;5011265;28;20785;-77
2022/12/05 01:01:15;;;;;;;14.38;10.93;;;;;;;6.51;65.98;102553.34;5005947;28;20495;-77
2022/12/05 01:03:41;;;;;;;13.17;10.40;;;;;;;6.50;66.19;102551.69;5011904;28;20470;-77
2022/12/05 01:06:08;;;;;;;13.70;10.20;;;;;;;6.46;66.29;102561.56;5007259;28;20380;-77
2022/12/05 01:08:34;;;;;;;13.52;10.10;;;;;;;6.48;66.31;102554.41;5009737;28;20467;-77
2022/12/05 01:11:00;;;;;;;15.25;10.85;;;;;;;6.51;66.29;102558.63;5008178;28;20378;-77
2022/12/05 01:13:27;;;;;;;12.68;9.95;;;;;;;6.39;66.72;102539.19;5010503;28;20392;-76
2022/12/05 01:15:53;;;;;;;13.52;10.05;;;;;;;6.42;66.85;102546.88;5010034;28;20415;-77
2022/12/05 01:18:20;;;;;;;12.00;9.00;;;;;;;6.40;66.56;102546.13;5009085;28;20404;-77
2022/12/05 01:20:46;;;;;;;12.10;9.35;;;;;;;6.37;66.74;102537.59;5009276;28;20904;-77
2022/12/05 01:23:12;;;;;;;11.80;9.50;;;;;;;6.49;66.51;102545.56;5007716;28;20502;-76
2022/12/05 01:25:40;;;;;;;11.57;8.75;;;;;;;6.46;66.46;102543.13;5008350;28;20379;-77
2022/12/05 01:28:06;;;;;;;11.57;9.25;;;;;;;6.46;66.52;102534.38;5009374;28;20385;-77
2022/12/05 01:30:32;;;;;;;12.57;9.10;;;;;;;6.41;66.57;102536.44;5006297;28;20371;-77
2022/12/05 01:32:58;;;;;;;10.93;8.43;;;;;;;6.22;67.29;102523.59;5010873;28;20382;-77
2022/12/05 01:35:23;;;;;;;12.75;9.57;;;;;;;6.40;66.89;102519.81;5008737;28;20499;-76
2022/12/05 01:37:50;;;;;;;10.00;7.65;;;;;;;6.35;66.99;102526.31;5008922;28;20476;-76
2022/12/05 01:40:16;;;;;;;10.90;8.18;;;;;;;6.43;66.78;102526.69;5007141;28;20384;-76
2022/12/05 01:42:41;;;;;;;11.35;8.75;;;;;;;6.50;66.30;102527.97;5009807;28;20391;-77
2022/12/05 01:45:15;;;;;;;10.57;8.27;;;;;;;6.62;66.25;102536.84;5009192;28;20474;-76
2022/12/05 01:47:41;;;;;;;10.43;8.00;;;;;;;6.40;66.31;102526.88;5010402;28;20408;-76
2022/12/05 01:50:07;;;;;;;11.45;8.40;;;;;;;6.46;66.29;102529.09;5010400;28;20482;-76
2022/12/05 01:52:34;;;;;;;9.88;7.32;;;;;;;6.20;67.32;102522.88;5004324;28;20376;-76
2022/12/05 01:55:05;;;;;;;10.40;7.20;;;;;;;6.31;66.84;102517.75;5008324;28;20446;-77
2022/12/05 01:57:31;;;;;;;11.50;7.28;;;;;;;6.23;66.97;102517.38;5009751;28;20887;-76
2022/12/05 02:00:02;;;;;;;9.75;7.28;;;;;;;6.38;66.67;102513.78;5010407;28;20376;-77
2022/12/05 02:02:30;;;;;;;11.00;7.60;;;;;;;6.50;66.54;102515.63;5006869;28;20384;-77
2022/12/05 02:05:16;;;;;;;10.00;7.30;;;;;;;6.51;66.41;102513.84;5008584;28;20860;-77
2022/12/05 02:07:42;;;;;;;8.93;7.35;;;;;;;6.49;66.84;102513.94;5006117;28;20380;-77
2022/12/05 02:10:09;;;;;;;9.93;7.35;;;;;;;6.50;66.17;102510.38;5009000;28;20864;-77
2022/12/05 02:12:35;;;;;;;10.63;7.35;;;;;;;6.47;66.66;102512.34;5006711;28;20391;-77
2022/12/05 02:15:19;;;;;;;10.48;6.97;;;;;;;6.41;66.50;102518.88;5006934;28;20888;-77
2022/12/05 02:18:06;;;;;;;9.87;7.37;;;;;;;6.45;66.57;102511.63;5010083;28;20384;-77
2022/12/05 02:21:09;;;;;;;11.18;8.10;;;;;;;6.62;66.48;102516.63;5002326;28;20380;-76
2022/12/05 02:23:40;;;;;;;10.10;7.70;;;;;;;6.72;65.67;102506.34;5004530;28;20386;-76
2022/12/05 02:26:27;;;;;;;10.68;7.90;;;;;;;6.56;66.11;102503.84;5008044;28;20386;-77
2022/12/05 02:29:38;;;;;;;11.68;7.78;;;;;;;6.59;66.02;102511.56;5009221;28;20380;-76
2022/12/05 02:32:12;;;;;;;10.23;7.30;;;;;;;6.42;66.71;102504.72;5007592;28;20795;-76
2022/12/05 02:34:47;;;;;;;10.07;7.22;;;;;;;6.39;66.83;102499.69;5009907;28;20419;-76
2022/12/05 02:37:18;;;;;;;9.52;7.22;;;;;;;6.41;67.13;102502.19;5010626;28;20376;-76
2022/12/05 02:39:58;;;;;;;11.73;8.18;;;;;;;6.30;67.03;102509.00;5007501;28;20447;-76
2022/12/05 02:42:35;;;;;;;10.77;7.30;;;;;;;6.39;66.79;102501.44;5013372;28;20376;-76
2022/12/05 02:45:08;;;;;;;12.05;8.20;;;;;;;6.44;66.88;102505.47;5011131;28;20418;-76
2022/12/05 02:47:40;;;;;;;10.37;7.93;;;;;;;6.43;66.85;102505.59;5012039;28;20404;-76
2022/12/05 02:50:07;;;;;;;9.63;7.65;;;;;;;6.47;66.85;102507.91;5013260;28;20384;-75
2022/12/05 02:52:34;;;;;;;9.48;7.00;;;;;;;6.38;67.07;102505.03;5009706;28;20473;-76
2022/12/05 02:55:01;;;;;;;10.77;8.02;;;;;;;6.38;67.07;102497.97;5007546;28;20698;-76
2022/12/05 02:57:27;;;;;;;8.82;7.32;;;;;;;6.30;66.85;102500.25;5011864;28;20407;-75
2022/12/05 02:59:52;;;;;;;10.87;7.80;;;;;;;6.18;67.69;102499.25;5013641;28;20450;-76
2022/12/05 03:02:44;;;;;;;10.63;7.70;;;;;;;6.09;67.79;102499.84;5011226;28;20386;-76
2022/12/05 03:05:21;;;;;;;9.15;7.47;;;;;;;6.21;67.42;102496.44;5007844;28;20388;-76
2022/12/05 03:07:50;;;;;;;9.95;7.35;;;;;;;6.25;67.44;102491.81;4994417;28;20394;-76
2022/12/05 03:10:19;;;;;;;10.77;7.43;;;;;;;6.26;67.54;102502.22;5006011;28;20436;-76
2022/12/05 03:12:50;;;;;;;10.00;7.70;;;;;;;6.31;67.31;102502.78;4992655;28;20408;-76
2022/12/05 03:15:21;;;;;;;10.20;7.60;;;;;;;6.29;67.52;102498.56;5005042;28;20442;-76
2022/12/05 03:17:56;;;;;;;10.88;7.88;;;;;;;6.25;67.36;102490.03;4995022;28;20382;-76
2022/12/05 03:20:47;;;;;;;12.00;7.47;;;;;;;6.16;67.87;102490.63;5009943;28;20382;-76
2022/12/05 03:23:19;;;;;;;10.17;8.13;;;;;;;6.30;67.63;102484.44;4994074;28;20386;-76
2022/12/05 03:26:00;;;;;;;10.80;7.60;;;;;;;6.15;67.64;102481.00;4994535;28;20381;-76
2022/12/05 03:28:43;;;;;;;11.07;7.47;;;;;;;6.25;67.67;102489.19;4994654;28;20431;-76
2022/12/05 03:31:12;;;;;;;10.88;8.07;;;;;;;6.26;67.74;102493.50;5005840;28;20405;-76
2022/12/05 03:33:46;;;;;;;9.65;7.80;;;;;;;6.26;67.87;102496.13;4994405;28;20739;-76
2022/12/05 03:36:22;;;;;;;11.38;7.72;;;;;;;6.37;67.06;102496.28;4993693;28;20409;-76
2022/12/05 03:39:00;;;;;;;10.20;7.55;;;;;;;6.24;67.26;102493.59;4994676;28;20440;-76
2022/12/05 03:41:26;;;;;;;12.23;8.43;;;;;;;6.27;67.66;102495.19;4993105;28;20396;-76
2022/12/05 03:44:12;;;;;;;11.55;8.32;;;;;;;6.29;67.31;102495.94;4994372;28;20393;-75
2022/12/05 03:46:52;;;;;;;9.30;7.88;;;;;;;6.17;67.70;102494.91;5004146;28;20409;-76
2022/12/05 03:49:29;;;;;;;11.20;8.45;;;;;;;6.21;67.60;102491.16;4993310;28;20377;-76
2022/12/05 03:52:04;;;;;;;10.60;7.90;;;;;;;6.24;67.45;102501.50;5008827;28;20856;-75
2022/12/05 03:54:38;;;;;;;10.63;7.82;;;;;;;6.23;67.42;102501.59;5003559;28;20411;-76
2022/12/05 03:57:22;;;;;;;10.38;7.72;;;;;;;6.31;67.44;102494.88;5013362;28;20402;-76
2022/12/05 03:59:59;;;;;;;11.23;8.15;;;;;;;6.26;67.55;102501.41;5012457;28;20427;-76
2022/12/05 04:02:44;;;;;;;10.00;8.10;;;;;;;6.31;67.55;102496.69;5008488;28;20388;-76
2022/12/05 04:08:18;;;;;;;11.15;7.88;;;;;;;6.20;67.91;102500.00;5001338;28;20458;-76
2022/12/05 04:10:49;;;;;;;10.60;8.48;;;;;;;6.18;67.86;102491.34;5003232;28;20401;-77
2022/12/05 04:13:25;;;;;;;10.73;8.20;;;;;;;6.21;67.66;102490.31;5005015;28;20382;-77
2022/12/05 04:18:56;;;;;;;9.33;7.90;;;;;;;6.33;67.44;102497.44;5008355;28;20453;-77
2022/12/05 04:21:38;;;;;;;11.25;8.13;;;;;;;6.24;67.70;102496.22;4995749;28;20483;-77
2022/12/05 04:27:16;;;;;;;10.70;7.80;;;;;;;6.08;67.87;102496.34;5008772;28;20382;-78
2022/12/05 04:29:52;;;;;;;10.80;8.98;;;;;;;6.15;68.26;102496.81;4983626;28;20567;-78
2022/12/05 04:32:19;;;;;;;12.25;8.82;;;;;;;6.22;68.04;102502.53;4998392;28;20931;-78
2022/12/05 04:34:54;;;;;;;16.08;10.55;;;;;;;6.29;67.26;102499.41;5002576;28;20409;-78
2022/12/05 04:37:25;;;;;;;15.10;9.80;;;;;;;6.20;67.62;102493.91;5003783;28;20391;-78
2022/12/05 04:39:58;;;;;;;13.05;9.88;;;;;;;6.05;68.07;102493.94;4991484;28;20388;-78
2022/12/05 04:42:27;;;;;;;11.90;8.32;;;;;;;6.14;67.96;102497.78;4992272;28;20381;-78
2022/12/05 04:44:59;;;;;;;12.27;9.05;;;;;;;6.15;68.11;102485.44;4985594;28;20452;-78
2022/12/05 04:47:30;;;;;;;15.40;11.15;;;;;;;6.27;67.82;102505.72;4999289;28;20412;-77
2022/12/05 04:49:57;;;;;;;11.88;8.35;;;;;;;6.11;67.88;102497.94;5000110;28;20405;-77
2022/12/05 04:52:24;;;;;;;12.25;8.98;;;;;;;6.13;68.07;102501.34;5002836;28;20998;-77
2022/12/05 04:54:57;;;;;;;12.23;10.23;;;;;;;6.08;67.94;102503.41;5003566;28;20411;-77
2022/12/05 04:57:32;;;;;;;13.88;10.02;;;;;;;6.20;67.99;102507.91;5001773;28;20434;-77
2022/12/05 04:59:58;;;;;;;12.38;9.30;;;;;;;6.36;67.70;102510.41;5000355;28;20392;-77
2022/12/05 05:02:32;;;;;;;10.05;7.82;;;;;;;6.23;67.61;102506.84;4987917;28;20457;-77
2022/12/05 05:05:00;;;;;;;11.57;8.77;;;;;;;6.22;67.98;102507.81;4982443;28;20380;-77
2022/12/05 05:07:26;;;;;;;9.00;7.63;;;;;;;6.16;67.80;102509.03;4998038;28;20881;-77
2022/12/05 05:09:51;;;;;;;10.20;6.70;;;;;;;6.12;68.08;102512.78;4995035;28;20487;-77
2022/12/05 05:12:17;;;;;;;11.03;7.80;;;;;;;6.09;68.52;102521.75;4990968;28;20770;-77
2022/12/05 05:14:42;;;;;;;9.60;7.25;;;;;;;6.01;68.54;102520.53;4987399;28;20496;-78
2022/12/05 05:17:08;;;;;;;8.17;6.40;;;;;;;5.81;69.01;102521.72;4987100;28;20397;-77
2022/12/05 05:19:33;;;;;;;9.37;6.77;;;;;;;6.02;68.90;102538.03;4990100;28;20389;-77
2022/12/05 05:21:59;;;;;;;11.30;7.70;;;;;;;6.22;68.12;102528.88;4989629;28;20456;-77
2022/12/05 05:24:25;;;;;;;8.90;6.70;;;;;;;6.24;67.53;102529.63;4980919;28;20389;-77
2022/12/05 05:26:51;;;;;;;16.48;14.77;;;;;;;6.17;67.80;102523.88;4994752;28;20396;-76
2022/12/05 05:29:16;;;;;;;10.38;7.22;;;;;;;6.15;67.97;102531.03;4997539;28;20457;-76
2022/12/05 05:31:43;;;;;;;9.00;6.73;;;;;;;6.01;68.15;102531.88;4988026;28;20837;-77
2022/12/05 05:34:10;;;;;;;8.60;6.35;;;;;;;5.85;69.08;102539.00;4989314;28;20901;-76
2022/12/05 05:36:36;;;;;;;10.13;7.20;;;;;;;5.94;68.78;102533.19;4988698;28;20869;-76
2022/12/05 05:39:03;;;;;;;9.50;6.80;;;;;;;6.00;68.73;102532.84;4992467;28;20396;-76
2022/12/05 05:41:35;;;;;;;10.82;7.25;;;;;;;5.94;68.75;102541.06;4989984;28;20838;-76
2022/12/05 05:44:03;;;;;;;10.68;7.80;;;;;;;5.99;68.84;102540.84;4995621;28;20392;-76
2022/12/05 05:46:32;;;;;;;12.13;8.80;;;;;;;6.08;68.39;102546.38;4986429;28;20421;-77
2022/12/05 05:48:58;;;;;;;10.38;7.78;;;;;;;6.03;68.57;102544.97;4990697;28;20907;-77
2022/12/05 05:51:28;;;;;;;11.80;8.27;;;;;;;6.11;68.32;102537.44;4997477;28;20389;-77
2022/12/05 05:53:55;;;;;;;12.10;8.55;;;;;;;6.27;68.27;102539.97;4995955;28;20895;-77
2022/12/05 05:56:20;;;;;;;12.98;8.35;;;;;;;6.26;67.75;102543.53;4991005;28;20810;-77
2022/12/05 05:58:46;;;;;;;11.15;7.75;;;;;;;6.28;67.65;102547.78;4986354;28;20484;-77
2022/12/05 06:01:15;;;;;;;10.65;7.95;;;;;;;6.20;67.73;102554.47;4991110;28;20794;-76
2022/12/05 06:03:41;;;;;;;11.23;8.07;;;;;;;6.25;67.64;102557.66;4989750;28;20503;-76
2022/12/05 06:06:10;;;;;;;12.65;8.05;;;;;;;6.25;68.05;102555.88;4990884;28;20378;-77
2022/12/05 06:08:38;;;;;;;9.57;7.40;;;;;;;6.20;67.66;102557.94;4994252;28;20392;-77
2022/12/05 06:11:14;;;;;;;11.60;8.00;;;;;;;6.13;68.24;102560.09;4991952;28;20386;-76
2022/12/05 06:13:40;;;;;;;11.25;7.43;;;;;;;5.87;68.84;102556.41;4992290;28;20763;-77
2022/12/05 06:16:08;;;;;;;9.93;7.43;;;;;;;5.90;68.84;102550.09;4989193;28;20414;-77
2022/12/05 06:18:34;;;;;;;10.55;7.55;;;;;;;6.06;68.19;102555.31;4990720;28;20392;-76
2022/12/05 06:20:59;;;;;;;11.87;7.53;;;;;;;5.90;68.96;102550.94;4994855;28;20465;-77
2022/12/05 06:23:26;;;;;;;12.07;7.85;;;;;;;5.96;68.65;102549.78;4994927;28;20374;-77
2022/12/05 06:25:54;;;;;;;11.30;8.07;;;;;;;6.13;68.55;102546.94;5005877;28;20385;-77
2022/12/05 06:28:21;;;;;;;11.18;7.72;;;;;;;6.16;67.96;102543.28;5003643;28;20376;-77
2022/12/05 06:30:46;;;;;;;10.20;8.37;;;;;;;6.01;68.45;102560.00;5002449;28;20467;-77
2022/12/05 06:33:12;;;;;;;13.03;8.00;;;;;;;5.94;68.60;102554.25;4998104;28;20821;-77
2022/12/05 06:35:38;;;;;;;10.87;7.90;;;;;;;6.08;68.56;102558.69;4988949;28;20473;-77
2022/12/05 06:38:05;;;;;;;9.23;7.57;;;;;;;6.05;68.23;102561.50;4992739;28;20389;-77
2022/12/05 06:40:31;;;;;;;10.27;7.18;;;;;;;5.85;69.11;102549.53;4998304;28;20389;-77
2022/12/05 06:42:57;;;;;;;10.88;7.28;;;;;;;5.86;68.90;102554.72;4990243;28;20469;-77
2022/12/05 06:45:22;;;;;;;11.05;8.15;;;;;;;6.04;68.65;102558.03;4990879;28;20382;-77
2022/12/05 06:47:49;;;;;;;9.27;6.97;;;;;;;5.97;68.35;102563.78;4990596;28;20802;-77
2022/12/05 06:50:15;;;;;;;9.50;4.53;;;;;;;6.26;70.21;102560.16;4994047;28;20883;-77
2022/12/05 06:52:40;;;;;;;29.13;12.85;;;;;;;6.97;72.11;102567.97;5006871;28;20392;-78
2022/12/05 06:55:06;;;;;;;16.27;9.80;;;;;;;7.12;72.87;102568.78;5000817;28;20775;-78
2022/12/05 06:57:32;;;;;;;10.50;7.43;;;;;;;7.24;72.68;102557.41;4992889;28;20429;-78
2022/12/05 07:02:49;;;;;;;9.98;7.10;;;;;;;7.58;72.32;102566.53;4991261;28;20380;-78
2022/12/05 07:05:15;;;;;;;8.18;6.43;;;;;;;7.34;68.15;102558.47;5003810;28;20386;-77
2022/12/05 07:07:40;;;;;;;11.70;7.65;;;;;;;7.07;67.58;102563.78;4991254;28;20389;-77
2022/12/05 07:10:06;;;;;;;11.13;8.20;;;;;;;7.01;66.91;102564.22;4993620;28;20376;-77
2022/12/05 07:12:32;;;;;;;9.15;7.45;;;;;;;6.79;66.86;102555.06;4997106;28;20440;-77
2022/12/05 07:14:59;;;;;;;8.30;6.90;;;;;;;6.62;66.88;102565.84;4998319;28;20534;-78
2022/12/05 07:17:24;;;;;;;10.57;7.90;;;;;;;6.51;67.71;102570.00;4996014;28;20926;-78
2022/12/05 07:19:51;;;;;;;10.60;7.63;;;;;;;6.57;67.08;102567.94;4990346;28;20468;-77
2022/12/05 07:22:19;;;;;;;9.93;6.97;;;;;;;6.57;67.25;102567.94;4991500;28;20382;-77
2022/12/05 07:24:44;;;;;;;11.60;7.63;;;;;;;6.53;67.23;102577.81;4993493;28;20385;-77
2022/12/05 07:27:10;;;;;;;9.80;7.23;;;;;;;6.54;67.11;102581.31;4998253;28;20787;-77
2022/12/05 07:29:36;;;;;;;9.97;7.20;;;;;;;6.51;67.23;102570.00;4995045;28;20507;-76
2022/12/05 07:32:01;;;;;;;9.80;6.93;;;;;;;6.27;67.38;102582.94;4994129;28;20862;-77
2022/12/05 07:34:27;;;;;;;10.68;6.65;;;;;;;6.21;68.19;102588.59;4993350;28;20448;-77
2022/12/05 07:36:52;;;;;;;14.38;8.98;;;;;;;6.36;67.76;102589.44;4994474;28;20398;-76
2022/12/05 07:39:18;;;;;;;14.87;8.60;;;;;;;6.37;67.74;102598.16;4999348;28;20390;-76
2022/12/05 07:41:43;;;;;;;17.60;10.33;;;;;;;6.36;67.52;102581.53;4994834;28;20385;-78
2022/12/05 07:44:10;;;;;;;16.27;10.65;;;;;;;6.41;67.52;102597.03;5000574;28;20390;-76
2022/12/05 07:46:36;;;;;;;11.77;8.60;;;;;;;6.41;67.69;102586.50;4994202;28;20806;-78
2022/12/05 07:49:02;;;;;;;13.93;9.07;;;;;;;6.52;67.41;102589.31;4999443;28;20451;-78
2022/12/05 07:51:28;;;;;;;18.20;9.93;;;;;;;6.30;67.48;102595.06;5006746;28;20396;-77
2022/12/05 07:53:53;;;;;;;14.93;9.67;;;;;;;6.48;67.54;102593.06;4999404;28;20462;-76
2022/12/05 07:56:20;;;;;;;13.07;7.90;;;;;;;6.53;67.37;102598.91;5002713;28;20402;-77
2022/12/05 07:58:47;;;;;;;11.63;7.28;;;;;;;6.27;67.53;102590.84;5009944;28;20392;-78
2022/12/05 08:01:23;;;;;;;12.10;8.30;;;;;;;6.40;67.61;102596.19;5004983;28;20386;-76
2022/12/05 08:03:52;;;;;;;8.23;5.95;;;;;;;6.38;67.73;102584.91;4995928;28;20487;-78
2022/12/05 08:06:22;;;;;;;8.40;6.07;;;;;;;6.47;67.30;102599.28;5013413;28;20376;-77
2022/12/05 08:08:48;;;;;;;7.13;5.63;;;;;;;6.30;67.59;102589.78;5012468;28;20387;-77
2022/12/05 08:11:23;;;;;;;7.78;5.90;;;;;;;6.32;67.91;102598.47;5024062;28;20388;-77
2022/12/05 08:13:49;;;;;;;8.82;6.80;;;;;;;6.35;67.75;102586.88;5013885;28;20386;-77
2022/12/05 08:16:17;;;;;;;9.98;7.50;;;;;;;6.39;67.38;102599.78;5026125;28;20438;-77
2022/12/05 08:18:43;;;;;;;9.23;6.95;;;;;;;6.59;67.11;102595.88;5017663;28;20384;-78
2022/12/05 08:21:11;;;;;;;9.93;7.53;;;;;;;6.63;66.94;102591.28;5008084;28;20386;-77
2022/12/05 08:23:38;;;;;;;11.27;7.03;;;;;;;6.60;67.08;102594.94;5004584;28;20384;-77
2022/12/05 08:26:07;;;;;;;10.30;6.63;;;;;;;6.56;67.44;102598.72;5012532;28;20380;-78
2022/12/05 08:28:33;;;;;;;9.53;6.60;;;;;;;6.43;67.83;102601.28;5013197;28;20830;-77
2022/12/05 08:31:06;;;;;;;11.32;7.65;;;;;;;6.46;67.73;102593.19;5009516;28;20384;-77
2022/12/05 08:33:32;;;;;;;12.98;8.75;;;;;;;6.56;67.02;102585.53;5000914;28;20451;-77
2022/12/05 08:36:03;;;;;;;13.40;9.77;;;;;;;6.64;67.17;102587.66;4999448;28;20846;-78
2022/12/05 08:38:29;;;;;;;12.70;8.07;;;;;;;6.54;67.25;102594.50;4998812;28;20384;-77
2022/12/05 08:40:54;;;;;;;12.57;9.10;;;;;;;6.59;67.19;102595.03;4999134;28;20447;-78
2022/12/05 08:43:20;;;;;;;9.93;7.57;;;;;;;6.40;67.67;102590.09;4997713;28;20380;-78
2022/12/05 08:45:51;;;;;;;10.23;7.57;;;;;;;6.40;67.61;102595.34;4993677;28;20460;-78
2022/12/05 08:48:16;;;;;;;9.27;7.00;;;;;;;6.39;67.64;102581.34;5007751;28;20399;-78
2022/12/05 08:50:42;;;;;;;11.82;7.75;;;;;;;6.68;67.28;102576.84;5000832;28;20379;-78
2022/12/05 08:53:07;;;;;;;9.40;6.60;;;;;;;6.64;67.32;102569.22;5000650;28;20439;-78
2022/12/05 08:55:36;;;;;;;9.40;6.73;;;;;;;6.64;66.96;102571.88;5010558;28;20419;-78
2022/12/05 08:58:04;;;;;;;10.77;7.40;;;;;;;6.72;66.98;102568.72;5011030;28;21394;-79
2022/12/05 09:00:30;;;;;;;9.63;7.10;;;;;;;6.67;66.94;102576.94;5012152;28;20434;-77
2022/12/05 09:02:56;;;;;;;11.32;8.55;;;;;;;6.71;66.92;102575.78;5012378;28;20877;-77
2022/12/05 09:05:22;;;;;;;8.03;5.57;;;;;;;6.60;67.21;102571.22;4998741;28;20413;-77
2022/12/05 09:07:48;;;;;;;10.32;6.88;;;;;;;6.65;66.91;102563.84;5005030;28;20862;-77
2022/12/05 09:10:13;;;;;;;12.57;7.00;;;;;;;6.66;67.14;102569.97;5005364;28;20458;-76
2022/12/05 09:12:39;;;;;;;8.73;5.83;;;;;;;6.43;67.85;102579.38;5011895;28;20391;-77
2022/12/05 09:15:10;;;;;;;10.13;6.55;;;;;;;6.55;67.31;102575.09;5001074;28;20763;-78
2022/12/05 09:17:36;;;;;;;11.50;6.60;;;;;;;6.62;67.12;102574.59;4995933;28;20384;-77
2022/12/05 09:20:03;;;;;;;9.53;6.33;;;;;;;6.68;66.72;102571.56;5002110;28;20425;-78
2022/12/05 09:22:28;;;;;;;21.47;12.17;;;;;;;6.67;67.15;102564.59;5005772;28;20440;-78
2022/12/05 09:24:54;;;;;;;22.13;12.53;;;;;;;6.80;66.75;102567.28;4992075;28;20460;-77
2022/12/05 09:27:19;;;;;;;14.80;8.57;;;;;;;6.70;66.70;102569.69;5006153;28;20837;-78
2022/12/05 09:29:44;;;;;;;18.33;9.87;;;;;;;6.56;67.17;102568.88;5012141;28;20380;-78
2022/12/05 09:32:11;;;;;;;13.30;8.70;;;;;;;6.41;67.82;102565.41;5010870;28;20392;-78
2022/12/05 09:34:36;;;;;;;15.15;9.55;;;;;;;6.46;67.75;102558.06;5010513;28;20469;-78
2022/12/05 09:37:06;;;;;;;12.48;9.80;;;;;;;6.54;67.38;102554.97;5002196;28;20390;-77
2022/12/05 09:39:33;;;;;;;16.20;10.53;;;;;;;6.67;67.13;102555.88;5007816;28;20471;-77
2022/12/05 09:42:08;;;;;;;10.90;7.60;;;;;;;6.65;67.14;102558.59;5011545;28;20395;-77
2022/12/05 09:44:51;;;;;;;9.18;6.50;;;;;;;6.76;66.91;102555.25;5011367;28;20449;-77
2022/12/05 09:47:29;;;;;;;8.32;6.15;;;;;;;6.73;66.60;102554.63;5011877;28;20408;-78
2022/12/05 09:50:20;;;;;;;8.75;6.57;;;;;;;6.69;66.86;102546.91;5011301;28;20380;-77
2022/12/05 09:53:06;;;;;;;9.13;5.60;;;;;;;6.54;66.78;102549.69;5001351;28;20394;-77
2022/12/05 09:55:43;;;;;;;7.03;5.30;;;;;;;6.42;67.42;102541.63;4995515;28;20414;-77
2022/12/05 09:58:21;;;;;;;7.75;5.75;;;;;;;6.62;67.10;102542.97;5011153;28;20394;-77
2022/12/05 10:00:50;;;;;;;8.73;5.43;;;;;;;6.61;67.16;102541.28;4997225;28;20475;-77
2022/12/05 10:03:22;;;;;;;8.30;5.93;;;;;;;6.70;66.89;102529.31;4999322;28;20393;-77
2022/12/05 10:06:46;;;;;;;7.40;5.32;;;;;;;6.68;66.48;102528.53;5009734;28;20388;-78
2022/12/05 10:10:00;;;;;;;6.57;4.68;;;;;;;6.60;66.74;102529.06;4965232;28;20393;-77
2022/12/05 10:12:38;;;;;;;5.60;4.60;;;;;;;6.81;66.42;102524.19;4918094;29;20481;-78
2022/12/05 10:15:28;;;;;;;7.07;4.70;;;;;;;6.77;66.27;102527.09;4990993;28;20412;-76
2022/12/05 10:18:01;;;;;;;9.05;6.53;;;;;;;6.91;66.21;102534.94;4997669;28;20392;-76
2022/12/05 10:20:36;;;;;;;7.93;4.70;;;;;;;6.86;66.33;102531.78;5011388;28;20418;-78
2022/12/05 10:23:13;;;;;;;6.53;5.00;;;;;;;6.85;66.37;102524.81;5011215;28;20388;-77
2022/12/05 10:25:40;;;;;;;6.93;4.43;;;;;;;6.67;66.81;102532.16;5011891;28;20388;-77
2022/12/05 10:28:17;;;;;;;8.15;5.30;;;;;;;6.60;66.79;102533.47;5011160;28;20729;-76
2022/12/05 10:30:45;;;;;;;21.13;19.02;;;;;;;6.73;66.54;102530.91;5010833;28;20414;-76
2022/12/05 10:33:17;;;;;;;6.57;5.18;;;;;;;6.60;66.68;102521.16;5010701;28;20443;-77
2022/12/05 10:35:43;;;;;;;8.82;5.22;;;;;;;6.60;66.72;102525.59;5010869;28;20511;-77
2022/12/05 10:38:30;;;;;;;8.77;6.00;;;;;;;6.80;66.40;102519.84;5005949;28;20502;-77
2022/12/05 10:41:02;;;;;;;9.48;6.25;;;;;;;6.72;66.79;102518.66;5005281;28;20383;-78
2022/12/05 10:43:30;;;;;;;11.40;6.63;;;;;;;6.60;67.33;102518.50;5011207;28;20860;-77
2022/12/05 10:45:56;;;;;;;8.77;6.75;;;;;;;6.64;66.91;102517.34;4998199;28;20497;-77
2022/12/05 10:48:24;;;;;;;9.05;6.72;;;;;;;6.62;66.70;102515.78;5010335;28;20383;-78
2022/12/05 10:50:54;;;;;;;16.88;11.48;;;;;;;6.54;67.61;102518.09;5011526;28;20384;-78
2022/12/05 10:53:25;;;;;;;10.40;6.05;;;;;;;6.56;67.54;102510.91;4997106;28;20407;-77
2022/12/05 10:55:51;;;;;;;9.32;5.13;;;;;;;6.55;67.65;102510.06;5010993;28;20494;-78
2022/12/05 10:58:23;;;;;;;8.40;4.95;;;;;;;6.46;67.64;102505.38;5014190;28;20387;-78
2022/12/05 11:00:52;;;;;;;7.68;5.07;;;;;;;6.62;67.30;102510.50;5015434;28;20384;-78
2022/12/05 11:03:27;;;;;;;9.52;4.97;;;;;;;6.74;67.41;102508.88;5015297;28;20380;-77
2022/12/05 11:05:58;;;;;;;8.93;5.37;;;;;;;6.78;66.95;102499.81;5014354;28;20392;-77
2022/12/05 11:08:29;;;;;;;10.05;6.13;;;;;;;6.61;67.28;102498.28;5014868;28;20388;-77
2022/12/05 11:11:20;;;;;;;9.63;5.90;;;;;;;6.47;67.79;102486.00;5015380;28;20451;-78
2022/12/05 11:13:52;;;;;;;18.20;15.32;;;;;;;6.70;67.12;102489.78;5001452;28;20469;-77
2022/12/05 11:16:28;;;;;;;13.80;8.45;;;;;;;6.84;67.10;102483.59;5015507;28;20498;-76
2022/12/05 11:18:54;;;;;;;10.93;6.60;;;;;;;6.82;67.01;102473.13;5014214;28;20392;-77
2022/12/05 11:21:19;;;;;;;10.40;6.50;;;;;;;6.88;66.96;102467.47;5014213;28;20384;-77
2022/12/05 11:23:46;;;;;;;9.83;6.40;;;;;;;6.96;66.74;102459.03;5014314;28;20380;-76
2022/12/05 11:26:36;;;;;;;10.83;6.20;;;;;;;6.96;66.52;102458.22;5014104;28;20795;-80
2022/12/05 11:29:37;;;;;;;12.45;7.80;;;;;;;7.03;66.82;102464.75;5005081;28;20396;-77
2022/12/05 11:32:05;;;;;;;10.82;6.80;;;;;;;7.02;66.69;102456.00;5005164;28;20388;-77
2022/12/05 11:34:45;;;;;;;10.25;6.25;;;;;;;6.89;66.97;102448.06;5013716;28;20410;-78
2022/12/05 11:37:19;;;;;;;11.10;5.82;;;;;;;6.97;66.59;102446.69;5003600;28;20393;-77
2022/12/05 11:39:44;;;;;;;11.73;6.78;;;;;;;6.92;66.85;102444.38;5012583;28;20520;-78
2022/12/05 11:42:19;;;;;;;10.35;5.30;;;;;;;6.71;67.02;102436.13;5013884;28;20813;-77
2022/12/05 11:44:50;;;;;;;11.33;6.97;;;;;;;6.78;67.27;102434.75;5014409;28;20390;-77
2022/12/05 11:47:38;;;;;;;11.73;7.30;;;;;;;6.91;66.69;102440.03;5004146;28;20429;-77
2022/12/05 11:50:13;;;;;;;10.80;7.05;;;;;;;6.94;66.36;102431.94;5012215;28;20386;-79
2022/12/05 11:53:04;;;;;;;10.40;6.50;;;;;;;6.79;66.88;102430.31;5005494;28;20393;-76